createdAt,value
2019-02-07T13:38:28.950Z,99972.58
2019-02-07T13:40:36.965Z,99978.12
2019-02-07T13:42:50.899Z,99972.90
2019-02-07T13:44:58.939Z,99981.73
2019-02-07T13:47:10.049Z,99968.06
2019-02-07T13:49:31.668Z,99969.78
2019-02-07T13:51:52.293Z,99968.06
2019-02-07T13:54:32.579Z,99966.30
2019-02-07T13:59:37.160Z,99961.75
2019-02-07T14:02:03.309Z,99954.80
2019-02-07T14:04:17.562Z,99957.74
2019-02-07T14:06:31.634Z,99956.36
2019-02-07T14:08:49.525Z,99961.40
2019-02-07T14:11:16.652Z,99960.94
2019-02-07T14:13:21.822Z,99959.55
2019-02-07T14:15:46.347Z,99947.59
2019-02-07T14:18:10.584Z,99945.39
2019-02-07T14:20:35.012Z,99947.30
2019-02-07T14:22:55.103Z,99941.97
2019-02-07T14:25:13.064Z,99942.82
2019-02-07T14:27:26.341Z,99933.25
2019-02-07T14:29:43.461Z,99934.13
2019-02-07T14:31:51.490Z,99929.30
2019-02-07T14:33:59.505Z,99933.67
2019-02-07T14:36:27.647Z,99937.38
2019-02-07T14:38:47.708Z,99928.01
2019-02-07T14:41:13.824Z,99928.12
2019-02-07T14:43:21.881Z,99929.59
2019-02-07T14:45:36.011Z,99928.05
2019-02-07T14:47:43.115Z,99922.98
2019-02-07T14:49:50.693Z,99929.46
2019-02-07T14:51:57.135Z,99927.41
2019-02-07T14:54:03.591Z,99920.05
2019-02-07T14:56:15.908Z,99913.58
2019-02-07T14:58:27.566Z,99914.72
2019-02-07T15:00:35.593Z,99924.27
2019-02-07T15:03:15.196Z,99921.15
2019-02-07T15:05:58.018Z,99921.82
2019-02-07T15:10:32.785Z,99921.30
2019-02-07T15:15:43.100Z,99910.41
2019-02-07T15:20:47.256Z,99899.80
2019-02-07T15:27:07.117Z,99889.33
2019-02-07T15:29:20.469Z,99885.78
2019-02-07T15:31:32.621Z,99887.41
2019-02-07T15:33:43.555Z,99880.01
2019-02-07T15:36:00.291Z,99883.66
2019-02-07T15:38:31.470Z,99886.83
2019-02-07T15:40:47.061Z,99881.86
2019-02-07T15:42:56.231Z,99880.48
2019-02-07T15:48:28.492Z,99876.41
2019-02-07T15:50:42.388Z,99869.88
2019-02-07T15:52:52.946Z,99879.23
2019-02-07T15:55:17.004Z,99876.16
2019-02-07T15:57:38.912Z,99884.72
2019-02-07T16:00:42.965Z,99881.72
2019-02-07T16:02:42.140Z,99886.44
2019-02-07T16:29:31.023Z,99855.66
2019-02-07T16:32:16.024Z,99855.54
2019-02-07T16:34:30.902Z,99853.00
2019-02-07T16:37:26.414Z,99850.50
2019-02-07T16:38:35.570Z,99848.12
2019-02-07T16:39:43.113Z,99837.04
2019-02-07T16:40:50.617Z,99840.34
2019-02-07T16:42:05.870Z,99850.92
2019-02-07T16:43:06.567Z,99842.78
2019-02-07T16:44:15.270Z,99838.88
2019-02-07T16:45:24.984Z,99840.06
2019-02-07T16:46:31.329Z,99845.92
2019-02-07T16:47:38.229Z,99843.39
2019-02-07T16:51:36.614Z,99846.95
2019-02-07T16:54:43.909Z,99838.09
2019-02-07T16:57:54.698Z,99843.20
2019-02-07T17:01:08.443Z,99841.48
2019-02-07T17:04:15.754Z,99839.95
2019-02-07T17:07:22.982Z,99832.70
2019-02-07T17:10:37.062Z,99824.41
2019-02-07T17:13:44.181Z,99815.16
2019-02-07T17:16:51.335Z,99816.00
2019-02-07T17:19:58.480Z,99806.20
2019-02-07T17:23:06.318Z,99803.89
2019-02-07T17:26:13.457Z,99799.98
2019-02-07T17:29:20.615Z,99798.68
2019-02-07T17:32:27.843Z,99799.38
2019-02-07T17:35:35.014Z,99796.70
2019-02-07T17:38:42.149Z,99794.34
2019-02-07T17:41:50.870Z,99799.09
2019-02-07T17:44:58.365Z,99785.91
2019-02-07T17:48:05.530Z,99790.84
2019-02-07T17:51:22.589Z,99785.08
2019-02-07T17:54:31.797Z,99772.17
2019-02-07T17:57:43.343Z,99776.92
2019-02-07T18:00:59.479Z,99776.67
2019-02-07T18:04:07.893Z,99766.18
2019-02-07T18:07:15.091Z,99755.91
2019-02-07T18:10:22.226Z,99752.20
2019-02-07T18:13:29.391Z,99751.84
2019-02-07T18:20:21.306Z,99762.02
2019-02-07T18:23:28.439Z,99766.37
2019-02-07T18:26:35.600Z,99766.64
2019-02-07T18:29:42.738Z,99770.02
2019-02-07T18:32:51.918Z,99764.50
2019-02-07T18:35:59.042Z,99763.86
2019-02-07T18:39:08.779Z,99769.38
2019-02-07T18:42:17.306Z,99754.20
2019-02-07T18:45:24.333Z,99769.42
2019-02-07T18:48:31.480Z,99777.92
2019-02-07T18:51:45.305Z,99779.41
2019-02-07T18:54:58.760Z,99766.78
2019-02-07T18:58:15.638Z,99764.45
2019-02-07T19:01:22.768Z,99761.45
2019-02-07T19:04:29.942Z,99758.11
2019-02-07T19:07:37.175Z,99762.55
2019-02-07T19:10:45.222Z,99755.33
2019-02-07T19:13:52.894Z,99762.13
2019-02-07T19:17:00.073Z,99766.84
2019-02-07T19:27:33.357Z,99771.99
2019-02-07T19:30:41.877Z,99767.55
2019-02-07T19:34:00.027Z,99770.65
2019-02-07T19:40:35.838Z,99773.14
2019-02-07T19:43:45.445Z,99761.42
2019-02-07T19:46:51.969Z,99764.98
2019-02-07T19:50:24.524Z,99765.27
2019-02-07T19:53:32.037Z,99765.98
2019-02-07T19:56:39.237Z,99757.10
2019-02-07T19:59:47.110Z,99760.24
2019-02-07T20:02:54.042Z,99758.80
2019-02-07T20:06:01.258Z,99756.56
2019-02-07T20:09:13.624Z,99756.02
2019-02-07T20:12:21.525Z,99756.85
2019-02-07T20:15:40.241Z,99754.31
2019-02-07T20:34:16.557Z,99755.61
2019-02-07T20:38:10.556Z,99761.13
2019-02-07T20:40:24.000Z,99749.77
2019-02-07T20:45:33.205Z,99762.59
2019-02-07T20:47:42.754Z,99759.84
2019-02-07T20:52:33.568Z,99764.37
2019-02-07T20:54:45.717Z,99758.06
2019-02-07T20:57:15.004Z,99758.00
2019-02-07T20:59:27.478Z,99759.78
2019-02-07T21:01:38.589Z,99761.56
2019-02-07T21:06:06.102Z,99768.76
2019-02-07T21:08:16.358Z,99765.87
2019-02-07T21:10:57.884Z,99760.95
2019-02-07T21:13:06.005Z,99763.84
2019-02-07T21:15:20.325Z,99764.15
2019-02-07T21:22:55.837Z,99775.15
2019-02-07T21:27:38.731Z,99767.58
2019-02-07T21:29:45.190Z,99777.27
2019-02-07T21:31:51.769Z,99777.69
2019-02-07T21:33:58.258Z,99774.03
2019-02-07T21:36:04.791Z,99779.81
2019-02-07T21:38:12.723Z,99779.66
2019-02-07T21:40:23.628Z,99783.30
2019-02-07T21:42:30.159Z,99793.56
2019-02-07T21:44:36.608Z,99798.64
2019-02-07T21:46:43.097Z,99783.72
2019-02-07T21:48:50.896Z,99786.25
2019-02-07T21:51:01.287Z,99793.23
2019-02-07T21:53:10.170Z,99792.00
2019-02-07T21:55:25.447Z,99787.68
2019-02-07T21:57:32.058Z,99792.19
2019-02-07T21:59:40.509Z,99795.42
2019-02-07T22:01:47.082Z,99785.84
2019-02-07T22:03:53.560Z,99791.36
2019-02-07T22:06:01.600Z,99793.11
2019-02-07T22:08:09.062Z,99788.56
2019-02-07T22:10:18.509Z,99794.38
2019-02-07T22:12:25.840Z,99793.22
2019-02-07T22:14:32.319Z,99790.98
2019-02-07T22:16:38.904Z,99794.31
2019-02-07T22:19:05.462Z,99792.53
2019-02-07T22:21:11.908Z,99788.02
2019-02-07T22:23:18.153Z,99791.45
2019-02-07T22:25:24.655Z,99792.34
2019-02-07T22:27:30.988Z,99795.00
2019-02-07T22:29:37.307Z,99801.98
2019-02-07T22:31:43.529Z,99797.01
2019-02-07T22:33:49.850Z,99799.25
2019-02-07T22:35:56.138Z,99803.34
2019-02-07T22:38:02.374Z,99799.78
2019-02-07T22:40:19.140Z,99796.77
2019-02-07T22:42:25.295Z,99797.18
2019-02-07T22:44:31.517Z,99801.22
2019-02-07T22:46:37.777Z,99802.96
2019-02-07T22:48:43.933Z,99794.87
2019-02-07T22:50:50.599Z,99804.45
2019-02-07T22:52:57.421Z,99800.42
2019-02-07T22:55:04.278Z,99806.86
2019-02-07T22:57:10.437Z,99803.62
2019-02-07T22:59:16.701Z,99807.45
2019-02-07T23:01:23.431Z,99801.77
2019-02-07T23:03:30.251Z,99799.58
2019-02-07T23:05:36.415Z,99800.88
2019-02-07T23:07:42.633Z,99804.78
2019-02-07T23:09:48.864Z,99806.91
2019-02-07T23:11:55.110Z,99809.20
2019-02-07T23:14:02.235Z,99805.59
2019-02-07T23:16:10.062Z,99805.59
2019-02-07T23:18:16.301Z,99812.50
2019-02-07T23:20:23.072Z,99807.02
2019-02-07T23:22:29.291Z,99812.16
2019-02-07T23:24:35.463Z,99814.55
2019-02-07T23:26:41.692Z,99807.30
2019-02-07T23:28:48.169Z,99808.94
2019-02-07T23:30:54.481Z,99813.05
2019-02-07T23:33:00.800Z,99812.36
2019-02-07T23:35:10.079Z,99817.80
2019-02-07T23:37:16.349Z,99811.09
2019-02-07T23:39:22.509Z,99811.16
2019-02-07T23:41:28.969Z,99811.23
2019-02-07T23:43:35.419Z,99802.06
2019-02-07T23:45:41.861Z,99807.61
2019-02-07T23:47:48.170Z,99809.31
2019-02-07T23:49:54.433Z,99808.42
2019-02-07T23:52:00.799Z,99811.20
2019-02-07T23:54:07.606Z,99807.50
2019-02-07T23:56:13.917Z,99815.44
2019-02-07T23:58:20.149Z,99824.74
